Flight Track Log - Related Links

Times and Time Zones

All times are in EDT time to prevent confusion due to time zone crossing. See the N62119 flight status page for this flight to view local times or setup timezone preferences in your user account.

Time Position Orientation Groundspeed Altitude Reporting Facility
EDT Latitude Longitude Course Direction KTS MPH feet Rate Location/Type
Wed 06:43:50 PM 40.8661 -87.1581 173° South 135 155 4,200  Level Chicago Center
Wed 06:44:01 PM 40.8531 -87.1553 171° South 136 157 4,700 1,171 Climbing Chicago Center
Wed 06:44:31 PM 40.8303 -87.1483 167° South 144 166 5,000 353 Climbing Chicago Center
Wed 06:44:52 PM 40.8167 -87.1433 164° South 143 165 5,000  Level Chicago Center
Wed 06:45:31 PM 40.7808 -87.1339 169° South 193 222 5,000  Level Chicago Center
Wed 06:45:54 PM 40.7653 -87.1283 165° South 168 193 5,000 -98 Level Chicago Center
Wed 06:46:32 PM 40.7292 -87.1192 169° South 186 214 4,900 -97 Descending Chicago Center
Wed 06:46:56 PM 40.7142 -87.1139 165° South 185 213 4,900  Level Chicago Center
Wed 06:47:33 PM 40.6797 -87.1047 169° South 184 212 4,900 97 Level Chicago Center
Wed 06:47:58 PM 40.6650 -87.1003 167° South 183 211 5,000  Climbing Chicago Center
Wed 06:48:33 PM 40.6281 -87.0903 168° South 184 212 4,900 -97 Descending Chicago Center
Wed 06:49:00 PM 40.6504 -87.1309 173° South  Level Estimated
Wed 06:49:00 PM 40.6092 -87.0844 167° South 183 211 4,900  Level Chicago Center
Wed 06:49:34 PM 40.5806 -87.0761 168° South 183 211 4,900  Level Chicago Center
Wed 06:50:03 PM 40.5594 -87.0694 167° South 183 211 4,900  Level Chicago Center
Wed 06:50:35 PM 40.5289 -87.0644 173° South 181 208 4,900  Level Chicago Center
Wed 06:51:05 PM 40.5100 -87.0594 169° South 180 207 4,900  Level Chicago Center
Wed 06:51:35 PM 40.4769 -87.0581 178° South 182 209 4,900  Level Chicago Center
Wed 06:52:07 PM 40.4600 -87.0531 167° South 181 208 4,900  Level Chicago Center
Wed 06:52:36 PM 40.4272 -87.0492 175° South 183 211 4,900  Level Chicago Center
Wed 06:53:09 PM 40.4094 -87.0458 172° South 183 211 4,900  Level Chicago Center
Wed 06:53:36 PM 40.3753 -87.0428 176° South 182 209 4,900  Level Chicago Center
Wed 06:54:11 PM 40.3503 -87.0369 170° South 180 207 4,900  Level Chicago Center
Wed 06:54:37 PM 40.3278 -87.0342 175° South 180 207 4,900  Level Chicago Center
Wed 06:55:13 PM 40.3008 -87.0286 171° South 179 206 4,900  Level Chicago Center
Wed 06:55:38 PM 40.2758 -87.0281 179° South 178 205 4,900  Level Chicago Center
Wed 06:56:15 PM 40.2514 -87.0214 168° South 179 206 4,900  Level Chicago Center
Wed 06:57:17 PM 40.2017 -87.0144 174° South 180 207 4,900  Level Chicago Center
Wed 06:58:19 PM 40.1519 -87.0064 173° South 180 207 4,900  Level Chicago Center
Wed 06:59:22 PM 40.0911 -86.9975 174° South 182 209 4,900  Level Chicago Center
Wed 07:00:17 PM 40.0511 -86.9917 174° South 181 208 4,900  Level Indianapolis Center
Wed 07:01:19 PM 40.0006 -86.9836 173° South 182 209 4,900  Level Indianapolis Center
Wed 07:02:21 PM 39.9394 -86.9747 174° South 184 212 4,900  Level Indianapolis Center
Wed 07:03:23 PM 39.8892 -86.9675 174° South 184 212 4,900  Level Indianapolis Center
Wed 07:04:25 PM 39.8378 -86.9589 173° South 185 213 4,900  Level Indianapolis Center
Wed 07:05:26 PM 39.7867 -86.9514 174° South 185 213 4,900  Level Indianapolis Center
Wed 07:06:28 PM 39.7367 -86.9431 173° South 183 211 4,900  Level Indianapolis Center
Wed 07:07:30 PM 39.6858 -86.9353 173° South 184 212 4,900  Level Indianapolis Center
Wed 07:08:32 PM 39.6256 -86.9264 174° South 183 211 4,900  Level Indianapolis Center
Wed 07:09:34 PM 39.5753 -86.9206 175° South 182 209 4,900  Level Indianapolis Center
Wed 07:10:36 PM 39.5250 -86.9122 173° South 182 209 4,900  Level Indianapolis Center
Wed 07:11:37 PM 39.4750 -86.9039 173° South 182 209 4,900  Level Indianapolis Center
Wed 07:12:39 PM 39.4244 -86.8969 174° South 183 211 4,900  Level Indianapolis Center
Wed 07:13:41 PM 39.3742 -86.8894 173° South 183 211 4,900  Level Indianapolis Center
Wed 07:14:43 PM 39.3142 -86.8800 173° South 183 211 4,900  Level Indianapolis Center
Wed 07:15:45 PM 39.2628 -86.8725 174° South 185 213 4,900 48 Level Indianapolis Center
Wed 07:16:47 PM 39.2122 -86.8647 173° South 185 213 5,000  Climbing Indianapolis Center
Wed 07:17:49 PM 39.1619 -86.8575 174° South 184 212 4,900 -49 Descending Indianapolis Center
Wed 07:18:50 PM 39.1108 -86.8506 174° South 184 212 4,900  Level Indianapolis Center
Wed 07:19:52 PM 39.0600 -86.8428 173° South 183 211 4,900 48 Level Indianapolis Center
Wed 07:20:54 PM 39.0003 -86.8342 174° South 180 207 5,000  Climbing Indianapolis Center
Wed 07:21:56 PM 38.9508 -86.8269 174° South 178 205 4,900 -48 Descending Indianapolis Center
Wed 07:22:58 PM 38.9003 -86.8189 173° South 180 207 4,900  Level Indianapolis Center
Wed 07:24:00 PM 38.8500 -86.8122 174° South 181 208 4,900  Level Indianapolis Center
Wed 07:25:01 PM 38.7997 -86.8047 173° South 180 207 4,900  Level Indianapolis Center
Wed 07:26:03 PM 38.7489 -86.7969 173° South 182 209 4,900  Level Indianapolis Center
Wed 07:27:05 PM 38.6975 -86.7900 174° South 183 211 4,900  Level Indianapolis Center
Wed 07:28:07 PM 38.6467 -86.7822 173° South 183 211 4,900 48 Level Indianapolis Center
Wed 07:29:09 PM 38.5836 -86.7731 174° South 186 214 5,000  Climbing Indianapolis Center
Wed 07:30:10 PM 38.5328 -86.7656 173° South 185 213 4,900 -49 Descending Indianapolis Center
Wed 07:31:12 PM 38.4811 -86.7581 174° South 185 213 4,900  Level Indianapolis Center
Wed 07:32:14 PM 38.4297 -86.7517 174° South 184 212 4,900 -145 Level Indianapolis Center
Wed 07:33:16 PM 38.3789 -86.7447 174° South 183 211 4,600 -194 Descending Indianapolis Center
Wed 07:34:18 PM 38.3306 -86.7381 174° South 177 204 4,500 -290 Descending Indianapolis Center
Wed 07:35:20 PM 38.2839 -86.7297 172° South 171 197 4,000 -341 Descending Indianapolis Center
Wed 07:36:21 PM 38.2367 -86.7239 174° South 170 196 3,800 -195 Descending Indianapolis Center
Wed 07:37:23 PM 38.1914 -86.7172 173° South 166 191 3,600 -387 Descending Indianapolis Center
Wed 07:38:25 PM 38.1447 -86.7108 174° South 165 190 3,000 -532 Descending Indianapolis Center
Wed 07:39:27 PM 38.0953 -86.7036 173° South 171 197 2,500 -484 Descending Indianapolis Center

Login

Don't have an account? Register now (free) for customized features, flight alerts, and more!